Terminal Aerodrome Forecast
Issued by NWS Atlanta, GA

Home | Current Version | Previous Version | Text Only | Print | Product List | Glossary On
Versions: 1 2 3 4 5 6 7 8 9 10 11 12 13 14 15 16 17 18
777
FTUS42 KFFC 221735
TAFCSG
TAF
KCSG 221735Z 2218/2318 25008KT P6SM SCT045
     FM222000 24010KT P6SM VCSH SCT050
     FM230100 23004KT P6SM FEW060 SCT250
     FM231100 00000KT P6SM SCT015
     FM231500 25008KT P6SM SCT035=

USA.gov is the U.S. government's official web portal to all federal, state and local government web resources and services.